Anchor, Mississippi
Current Conditions -  °F | °C
As of 6:15 PM on Monday 20 Oct 2014 (Local Time) from KM40 Reporting Station
Clear Clear  
Wind Chill: 64°   Ceiling: Unl
Heat Index: 64°   Visibility: 9mi
Dew Point: 48°   Wind: 0mph
Humidity: 56%   Direction: NA
Pressure: 30.02"   Gusts: NA
Location:  33.7962°N, 89.0553°W
Report Text: KM40 202315Z AUTO 00000KT 9SM CLR 18/09 A3002 RMK AO2
Loading
Personal Weather Stations






























Interactive Weather Map New forecast layout! Learn more

10-Day Weather Forecast

Advertisements
Track Severe Weather on mobile